createdAt,value
2019-02-17T00:01:16.535Z,7.88
2019-02-17T00:03:47.380Z,7.88
2019-02-17T00:06:18.180Z,7.87
2019-02-17T00:08:48.941Z,7.86
2019-02-17T00:11:19.736Z,7.83
2019-02-17T00:13:50.487Z,7.78
2019-02-17T00:16:21.316Z,7.73
2019-02-17T00:18:53.418Z,7.67
2019-02-17T00:21:24.152Z,7.65
2019-02-17T00:23:55.066Z,7.62
2019-02-17T00:26:25.908Z,7.58
2019-02-17T00:28:59.545Z,7.56
2019-02-17T00:31:29.120Z,7.54
2019-02-17T00:33:59.939Z,7.45
2019-02-17T00:36:30.776Z,7.44
2019-02-17T00:39:01.613Z,7.44
2019-02-17T00:41:32.345Z,7.45
2019-02-17T00:44:03.082Z,7.42
2019-02-17T00:46:33.726Z,7.40
2019-02-17T00:49:04.433Z,7.36
2019-02-17T00:51:35.189Z,7.32
2019-02-17T00:54:06.019Z,7.36
2019-02-17T00:56:36.761Z,7.34
2019-02-17T00:59:10.056Z,7.34
2019-02-17T01:01:39.871Z,7.32
2019-02-17T01:04:10.598Z,7.30
2019-02-17T01:06:41.332Z,7.24
2019-02-17T01:09:12.084Z,7.20
2019-02-17T01:11:42.902Z,7.17
2019-02-17T01:14:13.951Z,7.14
2019-02-17T01:16:44.402Z,7.16
2019-02-17T01:19:15.205Z,7.19
2019-02-17T01:21:45.599Z,7.17
2019-02-17T01:24:16.373Z,7.18
2019-02-17T01:26:47.101Z,7.18
2019-02-17T01:29:20.353Z,7.14
2019-02-17T01:31:50.328Z,7.11
2019-02-17T01:34:21.062Z,7.04
2019-02-17T01:36:51.787Z,6.98
2019-02-17T01:39:22.736Z,6.94
2019-02-17T01:41:53.466Z,6.90
2019-02-17T01:44:24.014Z,6.92
2019-02-17T01:46:54.830Z,6.86
2019-02-17T01:49:25.764Z,6.85
2019-02-17T01:51:56.596Z,6.86
2019-02-17T01:54:27.461Z,6.79
2019-02-17T01:56:58.293Z,6.74
2019-02-17T01:59:30.908Z,6.72
2019-02-17T02:02:01.277Z,6.69
2019-02-17T02:04:32.003Z,6.68
2019-02-17T02:07:02.747Z,6.68
2019-02-17T02:09:33.471Z,6.66
2019-02-17T02:12:04.206Z,6.65
2019-02-17T02:14:34.954Z,6.62
2019-02-17T02:17:05.781Z,6.62
2019-02-17T02:19:37.024Z,6.60
2019-02-17T02:22:07.978Z,6.58
2019-02-17T02:24:38.428Z,6.56
2019-02-17T02:27:09.249Z,6.52
2019-02-17T02:29:41.383Z,6.50
2019-02-17T02:32:12.446Z,6.49
2019-02-17T02:34:42.855Z,6.48
2019-02-17T02:37:13.716Z,6.44
2019-02-17T02:39:44.139Z,6.42
2019-02-17T02:42:14.873Z,6.41
2019-02-17T02:44:45.704Z,6.41
2019-02-17T02:47:16.533Z,6.38
2019-02-17T02:49:47.274Z,6.37
2019-02-17T02:52:18.055Z,6.32
2019-02-17T02:54:48.508Z,6.31
2019-02-17T02:57:19.377Z,6.28
2019-02-17T02:59:52.353Z,6.26
2019-02-17T03:02:22.694Z,6.24
2019-02-17T03:04:53.111Z,6.22
2019-02-17T03:07:24.108Z,6.22
2019-02-17T03:09:54.879Z,6.18
2019-02-17T03:12:25.637Z,6.19
2019-02-17T03:14:56.476Z,6.16
2019-02-17T03:17:27.696Z,6.16
2019-02-17T03:19:58.098Z,6.14
2019-02-17T03:22:28.498Z,6.16
2019-02-17T03:24:59.306Z,6.16
2019-02-17T03:27:30.024Z,6.14
2019-02-17T03:30:05.093Z,6.10
2019-02-17T03:32:32.912Z,6.11
2019-02-17T03:35:03.492Z,6.04
2019-02-17T03:37:34.308Z,6.01
2019-02-17T03:40:07.485Z,5.98
2019-02-17T03:42:38.255Z,5.98
2019-02-17T03:45:10.811Z,5.97
2019-02-17T03:47:41.631Z,5.95
2019-02-17T03:50:12.464Z,5.92
2019-02-17T03:52:43.193Z,5.92
2019-02-17T03:55:13.943Z,5.92
2019-02-17T03:57:44.769Z,5.91
2019-02-17T04:00:17.353Z,5.91
2019-02-17T04:02:48.086Z,5.90
2019-02-17T04:05:18.829Z,5.91
2019-02-17T04:07:49.564Z,5.91
2019-02-17T04:10:19.995Z,5.88
2019-02-17T04:12:50.714Z,5.85
2019-02-17T04:15:21.126Z,5.82
2019-02-17T04:17:51.997Z,5.78
2019-02-17T04:20:22.759Z,5.76
2019-02-17T04:22:53.575Z,5.76
2019-02-17T04:25:24.029Z,5.77
2019-02-17T04:27:54.792Z,5.76
2019-02-17T04:30:29.403Z,5.75
2019-02-17T04:32:57.920Z,5.74
2019-02-17T04:35:28.707Z,5.72
2019-02-17T04:37:59.388Z,5.71
2019-02-17T04:40:30.127Z,5.72
2019-02-17T04:43:00.862Z,5.72
2019-02-17T04:45:33.126Z,5.72
2019-02-17T04:48:03.505Z,5.74
2019-02-17T04:50:34.308Z,5.71
2019-02-17T04:53:04.759Z,5.70
2019-02-17T04:55:35.266Z,5.66
2019-02-17T04:58:05.991Z,5.66
2019-02-17T05:00:40.121Z,5.65
2019-02-17T05:03:09.188Z,5.62
2019-02-17T05:05:40.032Z,5.65
2019-02-17T05:08:10.890Z,5.66
2019-02-17T05:10:41.602Z,5.64
2019-02-17T05:13:12.425Z,5.64
2019-02-17T05:15:43.277Z,5.64
2019-02-17T05:18:14.004Z,5.61
2019-02-17T05:20:44.743Z,5.60
2019-02-17T05:23:15.465Z,5.58
2019-02-17T05:25:46.232Z,5.57
2019-02-17T05:28:16.938Z,5.57
2019-02-17T05:30:52.776Z,5.57
2019-02-17T05:33:20.088Z,5.56
2019-02-17T05:35:50.899Z,5.54
2019-02-17T05:38:21.745Z,5.55
2019-02-17T05:40:52.580Z,5.52
2019-02-17T05:43:23.394Z,5.53
2019-02-17T05:45:54.152Z,5.51
2019-02-17T05:48:24.987Z,5.50
2019-02-17T05:50:55.443Z,5.48
2019-02-17T05:53:26.144Z,5.48
2019-02-17T05:55:56.961Z,5.46
2019-02-17T05:58:27.696Z,5.46
2019-02-17T06:01:03.928Z,5.45
2019-02-17T06:03:30.492Z,5.42
2019-02-17T06:06:01.267Z,5.42
2019-02-17T06:08:31.711Z,5.42
2019-02-17T06:11:02.500Z,5.41
2019-02-17T06:13:32.915Z,5.44
2019-02-17T06:16:03.315Z,5.46
2019-02-17T06:18:34.074Z,5.46
2019-02-17T06:21:04.834Z,5.48
2019-02-17T06:23:35.668Z,5.51
2019-02-17T06:26:06.402Z,5.48
2019-02-17T06:28:37.237Z,5.52
2019-02-17T06:31:14.344Z,5.52
2019-02-17T06:33:40.425Z,5.56
2019-02-17T06:36:11.284Z,5.54
2019-02-17T06:38:42.002Z,5.53
2019-02-17T06:41:12.750Z,5.56
2019-02-17T06:43:43.142Z,5.59
2019-02-17T06:46:15.557Z,5.62
2019-02-17T06:48:46.382Z,5.64
2019-02-17T06:51:17.123Z,5.60
2019-02-17T06:53:47.859Z,5.68
2019-02-17T06:56:20.338Z,5.70
2019-02-17T06:58:51.060Z,5.72
2019-02-17T07:01:24.628Z,5.78
2019-02-17T07:03:54.498Z,5.82
2019-02-17T07:06:26.953Z,5.86
2019-02-17T07:08:57.802Z,5.95
2019-02-17T07:11:28.515Z,5.97
2019-02-17T07:13:59.234Z,6.00
2019-02-17T07:16:30.010Z,6.04
2019-02-17T07:19:00.821Z,6.08
2019-02-17T07:21:31.350Z,6.09
2019-02-17T07:24:02.089Z,6.12
2019-02-17T07:26:32.494Z,6.14
2019-02-17T07:29:03.265Z,6.14
2019-02-17T07:31:35.425Z,6.18
2019-02-17T07:34:06.244Z,6.21
2019-02-17T07:36:38.206Z,6.26
2019-02-17T07:39:09.058Z,6.32
2019-02-17T07:41:39.792Z,6.38
2019-02-17T07:44:10.554Z,6.42
2019-02-17T07:46:41.384Z,6.44
2019-02-17T07:49:11.927Z,6.44
2019-02-17T07:51:42.930Z,6.50
2019-02-17T07:54:13.886Z,6.48
2019-02-17T07:56:44.725Z,6.52
2019-02-17T07:59:15.562Z,6.59
2019-02-17T08:01:45.977Z,6.69
2019-02-17T08:04:16.808Z,6.76
2019-02-17T08:06:47.565Z,6.76
2019-02-17T08:09:18.618Z,6.80
2019-02-17T08:11:49.527Z,6.91
2019-02-17T08:14:20.377Z,6.94
2019-02-17T08:16:51.235Z,6.86
2019-02-17T08:19:22.153Z,6.78
2019-02-17T08:21:52.894Z,6.99
2019-02-17T08:24:23.837Z,7.10
2019-02-17T08:26:54.320Z,7.20
2019-02-17T08:29:25.088Z,7.30
2019-02-17T08:31:56.306Z,7.42
2019-02-17T08:34:27.104Z,7.40
2019-02-17T08:36:57.904Z,7.36
2019-02-17T08:39:28.649Z,7.42
2019-02-17T08:41:59.368Z,7.48
2019-02-17T08:44:32.860Z,7.58
2019-02-17T08:47:03.601Z,7.70
2019-02-17T08:49:34.440Z,7.60
2019-02-17T08:52:05.282Z,7.71
2019-02-17T08:54:35.925Z,7.82
2019-02-17T08:57:06.740Z,7.94
2019-02-17T08:59:39.265Z,8.01
2019-02-17T09:02:10.096Z,8.04
2019-02-17T09:04:42.652Z,8.12
2019-02-17T09:07:13.584Z,8.22
2019-02-17T09:09:44.305Z,8.31
2019-02-17T09:12:14.775Z,8.25
2019-02-17T09:14:45.721Z,8.00
2019-02-17T09:17:16.634Z,7.93
2019-02-17T09:19:48.088Z,7.94
2019-02-17T09:22:19.088Z,8.14
2019-02-17T09:24:50.080Z,8.32
2019-02-17T09:27:20.925Z,8.48
2019-02-17T09:29:52.037Z,8.54
2019-02-17T09:32:22.983Z,8.60
2019-02-17T09:34:53.898Z,8.60
2019-02-17T09:37:24.970Z,8.63
2019-02-17T09:39:55.922Z,8.50
2019-02-17T09:42:27.420Z,8.41
2019-02-17T09:44:58.112Z,8.68
2019-02-17T09:47:29.232Z,8.66
2019-02-17T09:50:00.066Z,8.72
2019-02-17T09:52:30.994Z,8.63
2019-02-17T09:55:01.867Z,8.79
2019-02-17T09:57:32.813Z,8.91
2019-02-17T10:00:04.818Z,9.04
2019-02-17T10:02:35.701Z,9.18
2019-02-17T10:05:08.796Z,9.30
2019-02-17T10:07:41.229Z,9.33
2019-02-17T10:10:17.913Z,9.42
2019-02-17T10:12:48.381Z,9.46
2019-02-17T10:15:19.279Z,9.24
2019-02-17T10:17:50.133Z,9.50
2019-02-17T10:20:20.942Z,9.58
2019-02-17T10:22:51.784Z,9.56
2019-02-17T10:25:22.649Z,9.58
2019-02-17T10:27:53.481Z,9.55
2019-02-17T10:30:24.398Z,9.54
2019-02-17T10:32:57.225Z,9.44
2019-02-17T10:35:28.106Z,9.74
2019-02-17T10:37:58.849Z,9.92
2019-02-17T10:40:29.693Z,9.91
2019-02-17T10:43:00.410Z,10.04
2019-02-17T10:45:31.271Z,9.94
2019-02-17T10:48:02.091Z,9.80
2019-02-17T10:50:32.831Z,9.92
2019-02-17T10:53:03.670Z,10.14
2019-02-17T10:55:34.593Z,9.99
2019-02-17T10:58:08.409Z,10.19
2019-02-17T11:00:39.157Z,10.42
2019-02-17T11:03:09.980Z,10.24
2019-02-17T11:05:40.476Z,10.36
2019-02-17T11:08:11.258Z,10.40
2019-02-17T11:10:42.189Z,10.30
2019-02-17T11:13:13.027Z,10.25
2019-02-17T11:15:43.575Z,10.37
2019-02-17T11:18:14.489Z,10.38
2019-02-17T11:20:48.088Z,10.22
2019-02-17T11:23:18.923Z,10.24
2019-02-17T11:25:51.629Z,10.38
2019-02-17T11:28:22.348Z,10.34
2019-02-17T11:30:53.172Z,10.30
2019-02-17T11:33:24.001Z,10.35
2019-02-17T11:35:54.849Z,10.66
2019-02-17T11:38:25.637Z,10.79
2019-02-17T11:40:57.232Z,10.74
2019-02-17T11:43:28.039Z,10.68
2019-02-17T11:45:58.908Z,10.63
2019-02-17T11:48:29.672Z,10.74
2019-02-17T11:51:00.085Z,10.80
2019-02-17T11:53:31.119Z,10.93
2019-02-17T11:56:02.069Z,10.74
2019-02-17T11:58:32.919Z,10.83
2019-02-17T12:01:05.369Z,10.96
2019-02-17T12:03:36.167Z,11.00
2019-02-17T12:06:06.579Z,11.02
2019-02-17T12:08:38.710Z,11.00
2019-02-17T12:11:09.646Z,11.00
2019-02-17T12:13:40.662Z,11.18
2019-02-17T12:16:11.652Z,11.31
2019-02-17T12:18:42.556Z,11.42
2019-02-17T12:21:15.026Z,11.48
2019-02-17T12:23:47.146Z,11.46
2019-02-17T12:26:31.720Z,11.54
2019-02-17T12:29:05.725Z,11.61
2019-02-17T12:31:37.984Z,11.34
2019-02-17T12:34:08.973Z,11.48
2019-02-17T12:36:39.827Z,11.64
2019-02-17T12:39:10.775Z,11.83
2019-02-17T12:41:41.339Z,12.00
2019-02-17T12:44:12.267Z,12.00
2019-02-17T12:46:43.003Z,11.88
2019-02-17T12:49:13.906Z,11.70
2019-02-17T12:51:44.836Z,11.65
2019-02-17T12:54:15.807Z,11.72
2019-02-17T12:56:47.332Z,11.60
2019-02-17T12:59:18.040Z,11.76
2019-02-17T13:01:49.209Z,11.82
2019-02-17T13:04:20.201Z,11.74
2019-02-17T13:06:51.082Z,11.90
2019-02-17T13:09:22.053Z,11.84
2019-02-17T13:11:52.958Z,11.95
2019-02-17T13:14:25.344Z,11.98
2019-02-17T13:16:55.911Z,12.00
2019-02-17T13:19:26.838Z,11.94
2019-02-17T13:21:57.740Z,12.00
2019-02-17T13:24:28.398Z,12.00
2019-02-17T13:26:59.307Z,12.04
2019-02-17T13:29:30.078Z,12.14
2019-02-17T13:32:00.501Z,12.29
2019-02-17T13:34:33.915Z,12.20
2019-02-17T13:37:04.711Z,12.19
2019-02-17T13:39:35.541Z,12.04
2019-02-17T13:42:08.967Z,12.10
2019-02-17T13:44:39.892Z,12.02
2019-02-17T13:47:10.853Z,12.07
2019-02-17T13:49:41.649Z,12.02
2019-02-17T13:52:12.412Z,12.12
2019-02-17T13:54:43.409Z,12.21
2019-02-17T13:57:14.248Z,12.28
2019-02-17T13:59:45.000Z,12.31
2019-02-17T14:02:15.759Z,12.06
2019-02-17T14:04:46.592Z,12.14
2019-02-17T14:07:17.109Z,12.04
2019-02-17T14:09:47.958Z,12.08
2019-02-17T14:12:18.803Z,12.03
2019-02-17T14:14:50.126Z,12.00
2019-02-17T14:17:20.963Z,12.04
2019-02-17T14:19:51.797Z,12.01
2019-02-17T14:22:24.063Z,11.98
2019-02-17T14:24:54.789Z,11.94
2019-02-17T14:27:25.539Z,11.96
2019-02-17T14:29:55.952Z,11.83
2019-02-17T14:32:26.792Z,11.78
2019-02-17T14:34:57.534Z,11.83
2019-02-17T14:37:29.817Z,11.72
2019-02-17T14:40:00.674Z,11.74
2019-02-17T14:42:31.581Z,11.88
2019-02-17T14:45:02.418Z,11.83
2019-02-17T14:47:33.353Z,11.84
2019-02-17T14:50:05.227Z,11.81
2019-02-17T14:52:36.045Z,11.72
2019-02-17T14:55:08.934Z,11.76
2019-02-17T14:57:39.698Z,11.80
2019-02-17T15:00:13.363Z,11.90
2019-02-17T15:02:45.665Z,11.80
2019-02-17T15:05:16.497Z,11.86
2019-02-17T15:07:47.017Z,11.89
2019-02-17T15:10:17.895Z,11.87
2019-02-17T15:12:48.790Z,11.74
2019-02-17T15:15:22.894Z,11.70
2019-02-17T15:17:53.737Z,11.60
2019-02-17T15:20:25.820Z,11.56
2019-02-17T15:22:56.649Z,11.47
2019-02-17T15:25:27.473Z,11.44
2019-02-17T15:27:57.998Z,11.51
2019-02-17T15:30:28.843Z,11.48
2019-02-17T15:33:03.998Z,11.46
2019-02-17T15:35:34.205Z,11.40
2019-02-17T15:38:04.704Z,11.39
2019-02-17T15:40:35.457Z,11.46
2019-02-17T15:43:07.868Z,11.49
2019-02-17T15:45:38.673Z,11.44
2019-02-17T15:48:10.957Z,11.41
2019-02-17T15:50:41.490Z,11.34
2019-02-17T15:53:18.741Z,11.38
2019-02-17T15:55:51.137Z,11.26
2019-02-17T15:58:21.719Z,11.34
2019-02-17T16:00:54.267Z,11.25
2019-02-17T16:03:25.176Z,11.28
2019-02-17T16:06:03.486Z,11.24
2019-02-17T16:08:35.640Z,11.24
2019-02-17T16:11:06.520Z,11.24
2019-02-17T16:13:37.220Z,11.14
2019-02-17T16:16:09.373Z,11.02
2019-02-17T16:18:43.931Z,11.04
2019-02-17T16:21:16.286Z,11.04
2019-02-17T16:23:47.135Z,11.04
2019-02-17T16:26:18.114Z,11.07
2019-02-17T16:28:50.662Z,11.10
2019-02-17T16:31:21.511Z,10.98
2019-02-17T16:33:53.406Z,10.91
2019-02-17T16:36:25.744Z,10.98
2019-02-17T16:38:56.584Z,10.89
2019-02-17T16:41:27.519Z,10.95
2019-02-17T16:44:03.148Z,10.81
2019-02-17T16:46:35.533Z,10.82
2019-02-17T16:49:06.363Z,10.77
2019-02-17T16:51:37.245Z,10.73
2019-02-17T16:54:07.743Z,10.66
2019-02-17T16:56:38.581Z,10.60
2019-02-17T16:59:09.495Z,10.59
2019-02-17T17:01:39.945Z,10.61
2019-02-17T17:04:10.810Z,10.48
2019-02-17T17:06:41.786Z,10.57
2019-02-17T17:09:12.299Z,10.54
2019-02-17T17:11:43.296Z,10.57
2019-02-17T17:14:14.145Z,10.58
2019-02-17T17:16:44.971Z,10.60
2019-02-17T17:19:15.551Z,10.62
2019-02-17T17:21:46.415Z,10.54
2019-02-17T17:24:17.291Z,10.62
2019-02-17T17:26:48.013Z,10.44
2019-02-17T17:29:19.045Z,10.51
2019-02-17T17:31:51.412Z,10.50
2019-02-17T17:34:22.588Z,10.44
2019-02-17T17:36:56.420Z,10.51
2019-02-17T17:39:27.314Z,10.43
2019-02-17T17:41:58.023Z,10.30
2019-02-17T17:44:28.894Z,10.31
2019-02-17T17:46:59.809Z,10.40
2019-02-17T17:49:30.755Z,10.14
2019-02-17T17:52:01.735Z,10.16
2019-02-17T17:54:33.213Z,10.13
2019-02-17T17:57:04.798Z,10.14
2019-02-17T17:59:35.758Z,10.06
2019-02-17T18:02:07.496Z,10.18
2019-02-17T18:04:38.693Z,10.12
2019-02-17T18:07:10.815Z,10.11
2019-02-17T18:09:41.360Z,10.12
2019-02-17T18:12:11.946Z,10.05
2019-02-17T18:14:42.900Z,10.25
2019-02-17T18:17:13.856Z,10.00
2019-02-17T18:19:45.505Z,9.95
2019-02-17T18:22:16.434Z,10.03
2019-02-17T18:24:47.475Z,9.94
2019-02-17T18:27:18.216Z,9.90
2019-02-17T18:29:49.180Z,9.92
2019-02-17T18:32:21.350Z,9.92
2019-02-17T18:34:52.263Z,9.96
2019-02-17T18:37:24.644Z,9.98
2019-02-17T18:39:55.591Z,9.87
2019-02-17T18:42:26.164Z,9.89
2019-02-17T18:44:57.047Z,9.87
2019-02-17T18:47:27.899Z,9.85
2019-02-17T18:49:58.716Z,9.70
2019-02-17T18:52:29.948Z,9.80
2019-02-17T18:55:00.934Z,9.86
2019-02-17T18:57:31.846Z,9.98
2019-02-17T19:00:02.888Z,9.96
2019-02-17T19:02:33.883Z,9.94
2019-02-17T19:05:06.261Z,9.80
2019-02-17T19:07:37.292Z,9.96
2019-02-17T19:10:11.774Z,9.94
2019-02-17T19:12:42.828Z,9.77
2019-02-17T19:15:21.533Z,9.77
2019-02-17T19:17:53.784Z,9.75
2019-02-17T19:20:27.440Z,9.84
2019-02-17T19:22:59.218Z,9.82
2019-02-17T19:25:30.000Z,9.83
2019-02-17T19:28:00.841Z,9.82
2019-02-17T19:30:31.657Z,9.79
2019-02-17T19:33:02.790Z,9.78
2019-02-17T19:35:41.524Z,9.80
2019-02-17T19:38:06.234Z,9.79
2019-02-17T19:40:39.215Z,9.80
2019-02-17T19:43:11.735Z,9.74
2019-02-17T19:45:43.022Z,9.64
2019-02-17T19:48:14.062Z,9.58
2019-02-17T19:50:45.184Z,9.50
2019-02-17T19:53:16.108Z,9.64
2019-02-17T19:55:46.718Z,9.54
2019-02-17T19:58:17.739Z,9.59
2019-02-17T20:00:48.850Z,9.60
2019-02-17T20:03:39.689Z,9.59
2019-02-17T20:06:12.163Z,9.54
2019-02-17T20:08:43.013Z,9.60
2019-02-17T20:11:13.953Z,9.48
2019-02-17T20:13:44.917Z,9.47
2019-02-17T20:16:15.813Z,9.46
2019-02-17T20:18:46.692Z,9.50
2019-02-17T20:21:17.248Z,9.48
2019-02-17T20:23:48.284Z,9.41
2019-02-17T20:26:19.262Z,9.44
2019-02-17T20:28:50.133Z,9.42
2019-02-17T20:31:21.043Z,9.46
2019-02-17T20:33:52.111Z,9.42
2019-02-17T20:36:23.034Z,9.46
2019-02-17T20:38:54.981Z,9.34
2019-02-17T20:41:25.663Z,9.37
2019-02-17T20:43:56.760Z,9.38
2019-02-17T20:46:27.732Z,9.34
2019-02-17T20:48:58.955Z,9.27
2019-02-17T20:51:29.528Z,9.28
2019-02-17T20:54:01.120Z,9.20
2019-02-17T20:56:43.961Z,9.29
2019-02-17T20:59:16.673Z,9.21
2019-02-17T21:01:47.737Z,9.26
2019-02-17T21:04:18.237Z,9.23
2019-02-17T21:06:49.031Z,9.08
2019-02-17T21:09:19.862Z,9.12
2019-02-17T21:11:51.459Z,9.12
2019-02-17T21:14:22.240Z,9.10
2019-02-17T21:16:53.187Z,9.16
2019-02-17T21:19:24.165Z,9.12
2019-02-17T21:21:55.095Z,9.13
2019-02-17T21:24:26.514Z,9.14
2019-02-17T21:26:57.473Z,9.08
2019-02-17T21:29:31.550Z,9.08
2019-02-17T21:32:03.104Z,8.98
2019-02-17T21:34:33.973Z,8.99
2019-02-17T21:37:06.118Z,9.04
2019-02-17T21:39:36.976Z,9.02
2019-02-17T21:42:07.989Z,8.98
2019-02-17T21:44:38.838Z,9.02
2019-02-17T21:47:10.010Z,9.00
2019-02-17T21:49:41.782Z,8.94
2019-02-17T21:52:12.400Z,8.92
2019-02-17T21:54:43.839Z,8.74
2019-02-17T21:57:14.663Z,8.88
2019-02-17T21:59:45.758Z,8.67
2019-02-17T22:02:16.737Z,8.64
2019-02-17T22:04:47.278Z,8.58
2019-02-17T22:07:18.125Z,8.66
2019-02-17T22:09:49.052Z,8.54
2019-02-17T22:12:19.886Z,8.64
2019-02-17T22:14:51.141Z,8.67
2019-02-17T22:17:21.970Z,8.50
2019-02-17T22:19:52.837Z,8.50
2019-02-17T22:22:23.815Z,8.57
2019-02-17T22:24:54.667Z,8.59
2019-02-17T22:27:25.440Z,8.56
2019-02-17T22:29:56.275Z,8.57
2019-02-17T22:32:27.199Z,8.60
2019-02-17T22:34:58.037Z,8.68
2019-02-17T22:37:28.865Z,8.64
2019-02-17T22:39:59.695Z,8.59
2019-02-17T22:42:30.538Z,8.54
2019-02-17T22:45:01.348Z,8.53
2019-02-17T22:47:32.119Z,8.43
2019-02-17T22:50:03.058Z,8.38
2019-02-17T22:52:33.894Z,8.41
2019-02-17T22:55:10.267Z,8.40
2019-02-17T22:57:40.840Z,8.38
2019-02-17T23:00:31.375Z,8.34
2019-02-17T23:03:02.232Z,8.26
2019-02-17T23:05:33.169Z,8.34
2019-02-17T23:08:03.998Z,8.32
2019-02-17T23:10:34.922Z,8.26
2019-02-17T23:13:05.806Z,8.24
2019-02-17T23:15:36.625Z,8.13
2019-02-17T23:18:07.433Z,8.20
2019-02-17T23:20:38.299Z,8.26
2019-02-17T23:23:09.122Z,8.22
2019-02-17T23:25:39.885Z,8.20
2019-02-17T23:28:10.695Z,8.14
2019-02-17T23:30:41.428Z,8.14
2019-02-17T23:33:12.273Z,8.16
2019-02-17T23:35:43.117Z,8.12
2019-02-17T23:38:13.927Z,8.09
2019-02-17T23:40:44.690Z,8.09
2019-02-17T23:43:15.537Z,8.06
2019-02-17T23:45:46.018Z,8.03
2019-02-17T23:48:17.180Z,8.03
2019-02-17T23:50:48.013Z,7.92
2019-02-17T23:53:18.824Z,7.95
2019-02-17T23:55:49.210Z,7.98
2019-02-17T23:58:20.006Z,7.95
